createdAt,value
2023-03-18T00:00:08.495Z,957.06
2023-03-18T00:01:08.459Z,957.04
2023-03-18T00:02:08.435Z,957.03
2023-03-18T00:03:08.406Z,957.03
2023-03-18T00:04:08.548Z,957.03
2023-03-18T00:05:08.352Z,957.08
2023-03-18T00:06:08.344Z,957.06
2023-03-18T00:07:08.313Z,957.10
2023-03-18T00:08:08.265Z,957.11
2023-03-18T00:09:08.233Z,957.11
2023-03-18T00:10:08.203Z,957.11
2023-03-18T00:11:08.185Z,957.13
2023-03-18T00:12:08.152Z,957.13
2023-03-18T00:13:08.117Z,957.21
2023-03-18T00:14:08.091Z,957.20
2023-03-18T00:15:08.077Z,957.23
2023-03-18T00:16:08.112Z,957.21
2023-03-18T00:17:08.039Z,957.18
2023-03-18T00:18:07.979Z,957.18
2023-03-18T00:19:07.947Z,957.20
2023-03-18T00:20:07.948Z,957.23
2023-03-18T00:21:07.893Z,957.22
2023-03-18T00:22:07.882Z,957.22
2023-03-18T00:23:07.837Z,957.25
2023-03-18T00:24:07.805Z,957.23
2023-03-18T00:25:07.782Z,957.20
2023-03-18T00:26:07.749Z,957.24
2023-03-18T00:27:07.727Z,957.21
2023-03-18T00:28:07.717Z,957.17
2023-03-18T00:29:07.668Z,957.16
2023-03-18T00:30:07.637Z,957.20
2023-03-18T00:31:07.629Z,957.19
2023-03-18T00:32:07.578Z,957.16
2023-03-18T00:33:07.714Z,957.19
2023-03-18T00:34:07.531Z,957.18
2023-03-18T00:35:07.497Z,957.22
2023-03-18T00:36:07.506Z,957.21
2023-03-18T00:37:07.440Z,957.21
2023-03-18T00:38:07.480Z,957.24
2023-03-18T00:39:07.494Z,957.26
2023-03-18T00:40:07.351Z,957.27
2023-03-18T00:41:07.323Z,957.31
2023-03-18T00:42:07.292Z,957.30
2023-03-18T00:43:07.267Z,957.31
2023-03-18T00:44:07.239Z,957.32
2023-03-18T00:45:07.209Z,957.34
2023-03-18T00:46:07.178Z,957.35
2023-03-18T00:47:07.154Z,957.37
2023-03-18T00:48:07.120Z,957.40
2023-03-18T00:49:07.093Z,957.37
2023-03-18T00:50:07.065Z,957.33
2023-03-18T00:51:07.037Z,957.34
2023-03-18T00:52:07.005Z,957.31
2023-03-18T00:53:06.983Z,957.38
2023-03-18T00:54:06.971Z,957.37
2023-03-18T00:55:06.950Z,957.34
2023-03-18T00:56:06.894Z,957.34
2023-03-18T00:57:06.871Z,957.34
2023-03-18T00:58:06.837Z,957.34
2023-03-18T00:59:06.835Z,957.34
2023-03-18T01:00:06.798Z,957.34
2023-03-18T01:01:06.808Z,957.33
2023-03-18T01:02:06.766Z,957.31
2023-03-18T01:03:06.694Z,957.30
2023-03-18T01:04:06.671Z,957.30
2023-03-18T01:05:06.641Z,957.27
2023-03-18T01:06:06.606Z,957.25
2023-03-18T01:07:06.575Z,957.25
2023-03-18T01:08:06.557Z,957.26
2023-03-18T01:09:06.525Z,957.26
2023-03-18T01:10:06.511Z,957.32
2023-03-18T01:11:06.464Z,957.31
2023-03-18T01:12:06.435Z,957.29
2023-03-18T01:13:06.411Z,957.31
2023-03-18T01:14:06.392Z,957.30
2023-03-18T01:15:06.349Z,957.28
2023-03-18T01:16:06.346Z,957.28
2023-03-18T01:17:06.292Z,957.25
2023-03-18T01:18:06.262Z,957.25
2023-03-18T01:19:06.236Z,957.26
2023-03-18T01:20:06.209Z,957.26
2023-03-18T01:21:06.193Z,957.23
2023-03-18T01:22:06.149Z,957.27
2023-03-18T01:23:06.136Z,957.32
2023-03-18T01:24:06.089Z,957.23
2023-03-18T01:25:06.062Z,957.28
2023-03-18T01:26:06.066Z,957.32
2023-03-18T01:27:06.003Z,957.32
2023-03-18T01:28:05.976Z,957.32
2023-03-18T01:29:05.946Z,957.32
2023-03-18T01:30:05.917Z,957.30
2023-03-18T01:31:05.895Z,957.29
2023-03-18T01:32:05.882Z,957.28
2023-03-18T01:33:05.873Z,957.26
2023-03-18T01:34:05.799Z,957.23
2023-03-18T01:35:05.772Z,957.27
2023-03-18T01:36:05.773Z,957.25
2023-03-18T01:37:05.763Z,957.24
2023-03-18T01:38:05.733Z,957.18
2023-03-18T01:39:05.657Z,957.21
2023-03-18T01:40:05.634Z,957.20
2023-03-18T01:41:05.641Z,957.20
2023-03-18T01:42:05.602Z,957.19
2023-03-18T01:43:05.572Z,957.17
2023-03-18T01:44:05.503Z,957.18
2023-03-18T01:45:05.485Z,957.22
2023-03-18T01:46:05.508Z,957.17
2023-03-18T01:47:05.420Z,957.18
2023-03-18T01:48:05.394Z,957.21
2023-03-18T01:49:05.362Z,957.21
2023-03-18T01:50:05.330Z,957.18
2023-03-18T01:51:05.324Z,957.16
2023-03-18T01:52:05.283Z,957.17
2023-03-18T01:53:05.253Z,957.20
2023-03-18T01:54:05.214Z,957.21
2023-03-18T01:55:05.186Z,957.23
2023-03-18T01:56:05.154Z,957.19
2023-03-18T01:57:05.130Z,957.18
2023-03-18T01:58:05.123Z,957.15
2023-03-18T01:59:05.073Z,957.15
2023-03-18T02:00:05.037Z,957.11
2023-03-18T02:01:05.078Z,957.15
2023-03-18T02:02:04.977Z,957.12
2023-03-18T02:03:04.964Z,957.12
2023-03-18T02:04:04.917Z,957.14
2023-03-18T02:05:04.891Z,957.12
2023-03-18T02:06:04.861Z,957.16
2023-03-18T02:07:04.834Z,957.14
2023-03-18T02:08:04.812Z,957.14
2023-03-18T02:09:04.776Z,957.15
2023-03-18T02:10:04.744Z,957.16
2023-03-18T02:11:04.760Z,957.13
2023-03-18T02:12:04.686Z,957.15
2023-03-18T02:13:04.659Z,957.17
2023-03-18T02:14:04.652Z,957.15
2023-03-18T02:15:04.602Z,957.18
2023-03-18T02:16:04.585Z,957.15
2023-03-18T02:17:04.555Z,957.16
2023-03-18T02:18:04.510Z,957.13
2023-03-18T02:19:04.481Z,957.10
2023-03-18T02:20:04.457Z,957.11
2023-03-18T02:21:04.435Z,957.11
2023-03-18T02:22:04.394Z,957.13
2023-03-18T02:23:04.365Z,957.13
2023-03-18T02:24:04.400Z,957.15
2023-03-18T02:25:04.305Z,957.14
2023-03-18T02:26:04.279Z,957.18
2023-03-18T02:27:04.247Z,957.19
2023-03-18T02:28:04.217Z,957.14
2023-03-18T02:29:04.190Z,957.20
2023-03-18T02:30:04.181Z,957.17
2023-03-18T02:31:04.177Z,957.19
2023-03-18T02:32:04.104Z,957.18
2023-03-18T02:33:04.104Z,957.20
2023-03-18T02:34:04.040Z,957.15
2023-03-18T02:35:04.051Z,957.16
2023-03-18T02:36:04.015Z,957.16
2023-03-18T02:37:03.951Z,957.13
2023-03-18T02:38:03.921Z,957.08
2023-03-18T02:39:03.899Z,957.10
2023-03-18T02:40:03.861Z,957.09
2023-03-18T02:41:03.839Z,957.05
2023-03-18T02:42:03.804Z,957.03
2023-03-18T02:43:03.777Z,957.06
2023-03-18T02:44:03.743Z,957.07
2023-03-18T02:45:03.717Z,957.05
2023-03-18T02:46:03.834Z,957.03
2023-03-18T02:47:03.664Z,957.02
2023-03-18T02:48:03.627Z,957.04
2023-03-18T02:49:03.619Z,956.99
2023-03-18T02:50:03.570Z,957.01
2023-03-18T02:51:03.541Z,956.99
2023-03-18T02:52:03.510Z,957.05
2023-03-18T02:53:03.483Z,957.02
2023-03-18T02:54:03.453Z,957.06
2023-03-18T02:55:03.426Z,957.06
2023-03-18T02:56:03.393Z,957.09
2023-03-18T02:57:03.367Z,957.07
2023-03-18T02:58:03.335Z,957.06
2023-03-18T02:59:03.333Z,957.07
2023-03-18T03:00:03.274Z,957.05
2023-03-18T03:01:03.320Z,957.10
2023-03-18T03:02:03.239Z,957.08
2023-03-18T03:03:03.300Z,957.07
2023-03-18T03:04:03.166Z,957.07
2023-03-18T03:05:03.136Z,957.08
2023-03-18T03:06:03.099Z,957.07
2023-03-18T03:07:03.075Z,957.08
2023-03-18T03:08:03.041Z,957.08
2023-03-18T03:09:03.012Z,957.13
2023-03-18T03:10:02.980Z,957.11
2023-03-18T03:11:02.961Z,957.16
2023-03-18T03:12:02.933Z,957.18
2023-03-18T03:13:02.901Z,957.10
2023-03-18T03:14:02.866Z,957.13
2023-03-18T03:15:02.859Z,957.11
2023-03-18T03:16:02.903Z,957.15
2023-03-18T03:17:02.779Z,957.16
2023-03-18T03:18:02.766Z,957.16
2023-03-18T03:19:02.722Z,957.12
2023-03-18T03:20:02.684Z,957.11
2023-03-18T03:21:02.655Z,957.15
2023-03-18T03:22:02.629Z,957.12
2023-03-18T03:23:02.601Z,957.13
2023-03-18T03:24:02.569Z,957.15
2023-03-18T03:25:02.537Z,957.16
2023-03-18T03:26:02.525Z,957.16
2023-03-18T03:27:02.513Z,957.17
2023-03-18T03:28:02.456Z,957.13
2023-03-18T03:29:02.419Z,957.19
2023-03-18T03:30:02.390Z,957.17
2023-03-18T03:31:02.461Z,957.12
2023-03-18T03:32:02.329Z,957.19
2023-03-18T03:33:02.389Z,957.15
2023-03-18T03:34:02.415Z,957.19
2023-03-18T03:35:02.241Z,957.16
2023-03-18T03:36:02.242Z,957.15
2023-03-18T03:37:02.182Z,957.19
2023-03-18T03:38:02.150Z,957.22
2023-03-18T03:39:02.130Z,957.22
2023-03-18T03:40:02.095Z,957.26
2023-03-18T03:41:02.064Z,957.21
2023-03-18T03:42:02.029Z,957.28
2023-03-18T03:43:02.021Z,957.25
2023-03-18T03:44:01.979Z,957.27
2023-03-18T03:45:01.995Z,957.28
2023-03-18T03:46:01.918Z,957.27
2023-03-18T03:47:01.883Z,957.27
2023-03-18T03:48:01.853Z,957.26
2023-03-18T03:49:01.823Z,957.24
2023-03-18T03:50:01.853Z,957.26
2023-03-18T03:51:02.089Z,957.27
2023-03-18T03:52:01.736Z,957.25
2023-03-18T03:53:01.707Z,957.24
2023-03-18T03:54:01.675Z,957.23
2023-03-18T03:55:01.659Z,957.23
2023-03-18T03:56:01.618Z,957.25
2023-03-18T03:57:01.584Z,957.22
2023-03-18T03:58:01.557Z,957.25
2023-03-18T03:59:01.524Z,957.24
2023-03-18T04:00:01.501Z,957.26
2023-03-18T04:01:01.468Z,957.28
2023-03-18T04:02:01.448Z,957.28
2023-03-18T04:03:01.482Z,957.27
2023-03-18T04:04:01.435Z,957.32
2023-03-18T04:05:01.345Z,957.31
2023-03-18T04:06:01.338Z,957.27
2023-03-18T04:07:01.289Z,957.26
2023-03-18T04:08:01.258Z,957.24
2023-03-18T04:09:01.227Z,957.26
2023-03-18T04:10:01.194Z,957.26
2023-03-18T04:11:01.166Z,957.26
2023-03-18T04:12:01.134Z,957.24
2023-03-18T04:13:01.107Z,957.26
2023-03-18T04:14:01.086Z,957.27
2023-03-18T04:15:01.050Z,957.28
2023-03-18T04:16:01.061Z,957.32
2023-03-18T04:17:00.986Z,957.27
2023-03-18T04:18:00.960Z,957.25
2023-03-18T04:19:00.926Z,957.28
2023-03-18T04:20:00.896Z,957.26
2023-03-18T04:21:00.868Z,957.28
2023-03-18T04:22:00.859Z,957.25
2023-03-18T04:23:00.812Z,957.27
2023-03-18T04:24:00.776Z,957.21
2023-03-18T04:25:00.780Z,957.23
2023-03-18T04:26:00.719Z,957.25
2023-03-18T04:27:00.690Z,957.28
2023-03-18T04:28:00.655Z,957.23
2023-03-18T04:29:00.633Z,957.27
2023-03-18T04:30:00.616Z,957.29
2023-03-18T04:31:00.636Z,957.29
2023-03-18T04:32:00.549Z,957.30
2023-03-18T04:33:00.584Z,957.29
2023-03-18T04:34:00.475Z,957.31
2023-03-18T04:35:00.448Z,957.29
2023-03-18T04:36:00.440Z,957.28
2023-03-18T04:37:00.396Z,957.30
2023-03-18T04:38:00.478Z,957.32
2023-03-18T04:39:00.336Z,957.33
2023-03-18T04:40:00.296Z,957.36
2023-03-18T04:41:00.264Z,957.36
2023-03-18T04:42:00.236Z,957.35
2023-03-18T04:43:00.210Z,957.35
2023-03-18T04:44:00.176Z,957.35
2023-03-18T04:45:00.143Z,957.36
2023-03-18T04:46:00.125Z,957.32
2023-03-18T04:47:00.182Z,957.31
2023-03-18T04:48:00.066Z,957.37
2023-03-18T04:49:00.025Z,957.33
2023-03-18T04:50:00.001Z,957.38
2023-03-18T04:50:59.976Z,957.32
2023-03-18T04:51:59.934Z,957.30
2023-03-18T04:52:59.904Z,957.28
2023-03-18T04:53:59.899Z,957.32
2023-03-18T04:54:59.845Z,957.35
2023-03-18T04:55:59.816Z,957.32
2023-03-18T04:56:59.819Z,957.34
2023-03-18T04:57:59.757Z,957.34
2023-03-18T04:58:59.724Z,957.38
2023-03-18T04:59:59.694Z,957.36
2023-03-18T05:00:59.705Z,957.38
2023-03-18T05:01:59.635Z,957.38
2023-03-18T05:02:59.620Z,957.40
2023-03-18T05:03:59.636Z,957.40
2023-03-18T05:04:59.544Z,957.39
2023-03-18T05:05:59.514Z,957.38
2023-03-18T05:06:59.483Z,957.37
2023-03-18T05:07:59.452Z,957.35
2023-03-18T05:08:59.421Z,957.32
2023-03-18T05:09:59.413Z,957.35
2023-03-18T05:10:59.362Z,957.33
2023-03-18T05:11:59.332Z,957.32
2023-03-18T05:12:59.309Z,957.31
2023-03-18T05:13:59.272Z,957.30
2023-03-18T05:14:59.245Z,957.32
2023-03-18T05:15:59.220Z,957.31
2023-03-18T05:16:59.181Z,957.31
2023-03-18T05:17:59.152Z,957.34
2023-03-18T05:18:59.120Z,957.30
2023-03-18T05:19:59.090Z,957.31
2023-03-18T05:20:59.063Z,957.32
2023-03-18T05:21:59.031Z,957.33
2023-03-18T05:22:58.998Z,957.36
2023-03-18T05:23:58.969Z,957.35
2023-03-18T05:24:58.944Z,957.35
2023-03-18T05:25:58.942Z,957.37
2023-03-18T05:26:58.932Z,957.35
2023-03-18T05:27:58.849Z,957.36
2023-03-18T05:28:58.817Z,957.36
2023-03-18T05:29:58.791Z,957.30
2023-03-18T05:30:58.760Z,957.34
2023-03-18T05:31:58.772Z,957.29
2023-03-18T05:32:58.778Z,957.32
2023-03-18T05:33:58.671Z,957.28
2023-03-18T05:34:58.641Z,957.31
2023-03-18T05:35:58.675Z,957.30
2023-03-18T05:36:58.583Z,957.27
2023-03-18T05:37:58.550Z,957.26
2023-03-18T05:38:58.515Z,957.27
2023-03-18T05:39:58.483Z,957.26
2023-03-18T05:40:58.452Z,957.27
2023-03-18T05:41:58.441Z,957.28
2023-03-18T05:42:58.393Z,957.29
2023-03-18T05:43:58.361Z,957.23
2023-03-18T05:44:58.340Z,957.28
2023-03-18T05:45:58.373Z,957.24
2023-03-18T05:46:58.272Z,957.26
2023-03-18T05:47:58.240Z,957.25
2023-03-18T05:48:58.208Z,957.25
2023-03-18T05:49:58.179Z,957.27
2023-03-18T05:50:58.166Z,957.26
2023-03-18T05:51:58.120Z,957.25
2023-03-18T05:52:58.088Z,957.23
2023-03-18T05:53:58.060Z,957.24
2023-03-18T05:54:58.031Z,957.28
2023-03-18T05:55:58.002Z,957.23
2023-03-18T05:56:57.968Z,957.23
2023-03-18T05:57:57.962Z,957.23
2023-03-18T05:58:57.910Z,957.25
2023-03-18T05:59:57.880Z,957.25
2023-03-18T06:00:57.861Z,957.27
2023-03-18T06:01:57.874Z,957.27
2023-03-18T06:02:57.825Z,957.26
2023-03-18T06:03:57.763Z,957.25
2023-03-18T06:04:57.729Z,957.26
2023-03-18T06:05:57.701Z,957.29
2023-03-18T06:06:57.670Z,957.32
2023-03-18T06:07:57.639Z,957.28
2023-03-18T06:08:57.627Z,957.29
2023-03-18T06:09:57.582Z,957.31
2023-03-18T06:10:57.555Z,957.29
2023-03-18T06:11:57.523Z,957.30
2023-03-18T06:12:57.489Z,957.31
2023-03-18T06:13:57.482Z,957.30
2023-03-18T06:14:57.432Z,957.29
2023-03-18T06:15:57.400Z,957.32
2023-03-18T06:16:57.457Z,957.32
2023-03-18T06:17:57.347Z,957.33
2023-03-18T06:18:57.311Z,957.35
2023-03-18T06:19:57.281Z,957.37
2023-03-18T06:20:57.268Z,957.36
2023-03-18T06:21:57.221Z,957.36
2023-03-18T06:22:57.195Z,957.41
2023-03-18T06:23:57.161Z,957.41
2023-03-18T06:24:57.130Z,957.42
2023-03-18T06:25:57.106Z,957.39
2023-03-18T06:26:57.070Z,957.44
2023-03-18T06:27:57.041Z,957.42
2023-03-18T06:28:57.010Z,957.46
2023-03-18T06:29:57.009Z,957.48
2023-03-18T06:30:57.003Z,957.52
2023-03-18T06:31:56.931Z,957.52
2023-03-18T06:32:56.952Z,957.52
2023-03-18T06:33:56.863Z,957.48
2023-03-18T06:34:56.832Z,957.47
2023-03-18T06:35:56.863Z,957.47
2023-03-18T06:36:56.778Z,957.46
2023-03-18T06:37:56.747Z,957.44
2023-03-18T06:38:56.723Z,957.43
2023-03-18T06:39:56.687Z,957.44
2023-03-18T06:40:56.655Z,957.44
2023-03-18T06:41:56.654Z,957.44
2023-03-18T06:42:56.592Z,957.49
2023-03-18T06:43:56.563Z,957.48
2023-03-18T06:44:56.535Z,957.49
2023-03-18T06:45:56.552Z,957.52
2023-03-18T06:46:56.473Z,957.52
2023-03-18T06:47:56.444Z,957.49
2023-03-18T06:48:56.419Z,957.49
2023-03-18T06:49:56.401Z,957.46
2023-03-18T06:50:56.354Z,957.47
2023-03-18T06:51:56.325Z,957.51
2023-03-18T06:52:56.302Z,957.52
2023-03-18T06:53:56.271Z,957.48
2023-03-18T06:54:56.237Z,957.55
2023-03-18T06:55:56.207Z,957.51
2023-03-18T06:56:56.179Z,957.55
2023-03-18T06:57:56.148Z,957.54
2023-03-18T06:58:56.118Z,957.57
2023-03-18T06:59:56.088Z,957.57
2023-03-18T07:00:56.135Z,957.53
2023-03-18T07:01:56.178Z,957.52
2023-03-18T07:02:56.004Z,957.50
2023-03-18T07:03:55.973Z,957.50
2023-03-18T07:04:55.938Z,957.53
2023-03-18T07:05:55.911Z,957.53
2023-03-18T07:06:55.885Z,957.51
2023-03-18T07:07:55.848Z,957.53
2023-03-18T07:08:55.819Z,957.52
2023-03-18T07:09:55.793Z,957.54
2023-03-18T07:10:57.709Z,957.49
2023-03-18T07:11:55.737Z,957.52
2023-03-18T07:12:55.700Z,957.51
2023-03-18T07:13:55.676Z,957.51
2023-03-18T07:14:55.643Z,957.56
2023-03-18T07:15:55.654Z,957.54
2023-03-18T07:16:55.584Z,957.55
2023-03-18T07:17:55.616Z,957.60
2023-03-18T07:18:55.526Z,957.60
2023-03-18T07:19:55.497Z,957.57
2023-03-18T07:20:55.467Z,957.61
2023-03-18T07:21:55.437Z,957.61
2023-03-18T07:22:55.416Z,957.62
2023-03-18T07:23:55.607Z,957.59
2023-03-18T07:24:55.349Z,957.62
2023-03-18T07:25:55.320Z,957.64
2023-03-18T07:26:55.294Z,957.66
2023-03-18T07:27:55.262Z,957.66
2023-03-18T07:28:55.230Z,957.67
2023-03-18T07:29:55.202Z,957.65
2023-03-18T07:30:55.194Z,957.64
2023-03-18T07:31:55.148Z,957.62
2023-03-18T07:32:55.172Z,957.61
2023-03-18T07:33:55.110Z,957.65
2023-03-18T07:34:55.056Z,957.63
2023-03-18T07:35:55.054Z,957.63
2023-03-18T07:36:54.999Z,957.65
2023-03-18T07:37:54.969Z,957.67
2023-03-18T07:38:54.948Z,957.71
2023-03-18T07:39:54.911Z,957.70
2023-03-18T07:40:54.881Z,957.72
2023-03-18T07:41:54.858Z,957.68
2023-03-18T07:42:54.829Z,957.71
2023-03-18T07:43:54.794Z,957.69
2023-03-18T07:44:54.767Z,957.68
2023-03-18T07:45:54.737Z,957.68
2023-03-18T07:46:54.707Z,957.62
2023-03-18T07:47:54.679Z,957.60
2023-03-18T07:48:54.647Z,957.61
2023-03-18T07:49:54.639Z,957.64
2023-03-18T07:50:54.589Z,957.59
2023-03-18T07:51:54.563Z,957.62
2023-03-18T07:52:54.533Z,957.60
2023-03-18T07:53:54.508Z,957.62
2023-03-18T07:54:54.476Z,957.62
2023-03-18T07:55:54.448Z,957.63
2023-03-18T07:56:54.611Z,957.67
2023-03-18T07:57:54.391Z,957.64
2023-03-18T07:58:54.366Z,957.60
2023-03-18T07:59:54.336Z,957.62
2023-03-18T08:00:54.309Z,957.62
2023-03-18T08:01:54.281Z,957.63
2023-03-18T08:02:54.244Z,957.62
2023-03-18T08:03:54.242Z,957.63
2023-03-18T08:04:54.218Z,957.63
2023-03-18T08:05:54.188Z,957.61
2023-03-18T08:06:54.136Z,957.63
2023-03-18T08:07:54.105Z,957.63
2023-03-18T08:08:54.081Z,957.67
2023-03-18T08:09:54.053Z,957.68
2023-03-18T08:10:54.020Z,957.68
2023-03-18T08:11:54.014Z,957.69
2023-03-18T08:12:54.202Z,957.72
2023-03-18T08:13:53.934Z,957.73
2023-03-18T08:14:53.905Z,957.72
2023-03-18T08:15:53.992Z,957.73
2023-03-18T08:16:53.857Z,957.72
2023-03-18T08:17:53.939Z,957.73
2023-03-18T08:18:53.792Z,957.74
2023-03-18T08:19:53.763Z,957.75
2023-03-18T08:20:53.734Z,957.77
2023-03-18T08:21:53.725Z,957.75
2023-03-18T08:22:53.679Z,957.77
2023-03-18T08:23:53.657Z,957.77
2023-03-18T08:24:53.621Z,957.76
2023-03-18T08:25:53.602Z,957.77
2023-03-18T08:26:53.563Z,957.76
2023-03-18T08:27:53.555Z,957.77
2023-03-18T08:28:53.525Z,957.74
2023-03-18T08:29:53.483Z,957.74
2023-03-18T08:30:53.455Z,957.77
2023-03-18T08:31:53.492Z,957.77
2023-03-18T08:32:53.445Z,957.83
2023-03-18T08:33:53.371Z,957.82
2023-03-18T08:34:53.341Z,957.86
2023-03-18T08:35:53.334Z,957.85
2023-03-18T08:36:53.409Z,957.84
2023-03-18T08:37:53.406Z,957.82
2023-03-18T08:38:53.228Z,957.83
2023-03-18T08:39:53.209Z,957.83
2023-03-18T08:40:53.175Z,957.77
2023-03-18T08:41:53.144Z,957.80
2023-03-18T08:42:53.119Z,957.80
2023-03-18T08:43:53.094Z,957.78
2023-03-18T08:44:53.061Z,957.80
2023-03-18T08:45:53.052Z,957.78
2023-03-18T08:46:53.016Z,957.77
2023-03-18T08:47:52.997Z,957.80
2023-03-18T08:48:52.955Z,957.78
2023-03-18T08:49:52.952Z,957.77
2023-03-18T08:50:52.903Z,957.74
2023-03-18T08:51:52.870Z,957.77
2023-03-18T08:52:52.840Z,957.77
2023-03-18T08:53:52.834Z,957.73
2023-03-18T08:54:52.792Z,957.72
2023-03-18T08:55:52.759Z,957.74
2023-03-18T08:56:52.736Z,957.73
2023-03-18T08:57:52.703Z,957.72
2023-03-18T08:58:52.678Z,957.72
2023-03-18T08:59:52.649Z,957.73
2023-03-18T09:00:52.669Z,957.70
2023-03-18T09:01:52.593Z,957.71
2023-03-18T09:02:52.567Z,957.69
2023-03-18T09:03:52.583Z,957.69
2023-03-18T09:04:52.513Z,957.67
2023-03-18T09:05:52.485Z,957.64
2023-03-18T09:06:52.475Z,957.66
2023-03-18T09:07:52.432Z,957.62
2023-03-18T09:08:52.403Z,957.59
2023-03-18T09:09:52.401Z,957.57
2023-03-18T09:10:52.366Z,957.59
2023-03-18T09:11:52.320Z,957.60
2023-03-18T09:12:52.294Z,957.56
2023-03-18T09:13:52.269Z,957.60
2023-03-18T09:14:52.241Z,957.57
2023-03-18T09:15:52.211Z,957.58
2023-03-18T09:16:52.227Z,957.58
2023-03-18T09:18:08.399Z,957.55
2023-03-18T09:18:52.129Z,957.57
2023-03-18T09:19:52.100Z,957.55
2023-03-18T09:20:52.077Z,957.52
2023-03-18T09:21:52.045Z,957.51
2023-03-18T09:22:52.041Z,957.55
2023-03-18T09:23:51.999Z,957.52
2023-03-18T09:24:51.968Z,957.52
2023-03-18T09:25:51.955Z,957.54
2023-03-18T09:26:51.910Z,957.55
2023-03-18T09:27:51.885Z,957.54
2023-03-18T09:28:51.861Z,957.53
2023-03-18T09:29:51.914Z,957.54
2023-03-18T09:30:51.888Z,957.52
2023-03-18T09:31:51.778Z,957.52
2023-03-18T09:32:51.764Z,957.49
2023-03-18T09:33:51.722Z,957.47
2023-03-18T09:34:51.694Z,957.46
2023-03-18T09:35:51.696Z,957.44
2023-03-18T09:36:51.781Z,957.43
2023-03-18T09:37:51.611Z,957.46
2023-03-18T09:38:51.595Z,957.40
2023-03-18T09:39:51.559Z,957.39
2023-03-18T09:40:51.534Z,957.39
2023-03-18T09:41:51.522Z,957.40
2023-03-18T09:42:51.477Z,957.39
2023-03-18T09:43:51.451Z,957.38
2023-03-18T09:44:51.435Z,957.35
2023-03-18T09:45:51.497Z,957.30
2023-03-18T09:46:51.537Z,957.25
2023-03-18T09:47:51.344Z,957.26
2023-03-18T09:48:51.321Z,957.22
2023-03-18T09:49:51.291Z,957.26
2023-03-18T09:50:51.264Z,957.28
2023-03-18T09:51:51.245Z,957.25
2023-03-18T09:52:51.216Z,957.28
2023-03-18T09:53:51.187Z,957.23
2023-03-18T09:54:51.173Z,957.27
2023-03-18T09:55:51.130Z,957.29
2023-03-18T09:56:51.104Z,957.30
2023-03-18T09:57:51.100Z,957.28
2023-03-18T09:58:51.053Z,957.30
2023-03-18T09:59:51.024Z,957.28
2023-03-18T10:00:51.003Z,957.28
2023-03-18T10:01:50.985Z,957.29
2023-03-18T10:02:50.948Z,957.30
2023-03-18T10:03:51.023Z,957.26
2023-03-18T10:04:50.894Z,957.24
2023-03-18T10:05:50.870Z,957.21
2023-03-18T10:06:50.856Z,957.21
2023-03-18T10:07:50.826Z,957.20
2023-03-18T10:08:50.795Z,957.21
2023-03-18T10:09:50.763Z,957.22
2023-03-18T10:10:50.734Z,957.21
2023-03-18T10:11:50.707Z,957.20
2023-03-18T10:12:50.709Z,957.19
2023-03-18T10:13:50.675Z,957.25
2023-03-18T10:14:50.630Z,957.24
2023-03-18T10:15:50.633Z,957.22
2023-03-18T10:16:50.582Z,957.22
2023-03-18T10:17:50.559Z,957.22
2023-03-18T10:18:50.524Z,957.22
2023-03-18T10:19:50.499Z,957.20
2023-03-18T10:20:50.480Z,957.20
2023-03-18T10:21:50.448Z,957.17
2023-03-18T10:22:50.428Z,957.13
2023-03-18T10:23:50.391Z,957.14
2023-03-18T10:24:50.375Z,957.13
2023-03-18T10:25:50.337Z,957.15
2023-03-18T10:26:50.314Z,957.14
2023-03-18T10:27:50.292Z,957.12
2023-03-18T10:28:50.258Z,957.10
2023-03-18T10:29:50.252Z,957.11
2023-03-18T10:30:50.262Z,957.07
2023-03-18T10:31:50.192Z,957.09
2023-03-18T10:32:50.652Z,957.09
2023-03-18T10:33:50.130Z,957.06
2023-03-18T10:34:50.105Z,957.04
2023-03-18T10:35:50.099Z,957.06
2023-03-18T10:36:50.055Z,957.05
2023-03-18T10:37:50.038Z,957.02
2023-03-18T10:38:50.001Z,957.04
2023-03-18T10:39:49.976Z,957.04
2023-03-18T10:40:49.967Z,957.00
2023-03-18T10:41:49.957Z,957.05
2023-03-18T10:42:49.903Z,957.02
2023-03-18T10:43:49.873Z,956.98
2023-03-18T10:44:49.844Z,956.96
2023-03-18T10:45:49.849Z,957.00
2023-03-18T10:46:49.963Z,957.04
2023-03-18T10:47:49.767Z,957.03
2023-03-18T10:48:49.747Z,957.06
2023-03-18T10:49:49.714Z,957.08
2023-03-18T10:50:49.705Z,957.05
2023-03-18T10:51:49.662Z,957.04
2023-03-18T10:52:49.646Z,957.04
2023-03-18T10:53:49.612Z,957.04
2023-03-18T10:54:49.586Z,956.98
2023-03-18T10:55:49.559Z,957.02
2023-03-18T10:56:49.538Z,956.97
2023-03-18T10:57:49.514Z,956.98
2023-03-18T10:58:49.482Z,956.96
2023-03-18T10:59:49.456Z,956.93
2023-03-18T11:00:49.430Z,956.90
2023-03-18T11:01:49.445Z,956.91
2023-03-18T11:02:49.743Z,956.91
2023-03-18T11:03:49.353Z,956.84
2023-03-18T11:04:49.328Z,956.79
2023-03-18T11:05:49.304Z,956.84
2023-03-18T11:06:49.278Z,956.83
2023-03-18T11:07:49.252Z,956.83
2023-03-18T11:08:49.227Z,956.82
2023-03-18T11:09:49.202Z,956.82
2023-03-18T11:10:49.175Z,956.82
2023-03-18T11:11:49.151Z,956.80
2023-03-18T11:12:49.123Z,956.81
2023-03-18T11:13:49.099Z,956.83
2023-03-18T11:14:49.070Z,956.79
2023-03-18T11:15:49.075Z,956.80
2023-03-18T11:16:49.020Z,956.79
2023-03-18T11:17:49.019Z,956.76
2023-03-18T11:18:48.972Z,956.76
2023-03-18T11:19:48.941Z,956.71
2023-03-18T11:20:48.918Z,956.69
2023-03-18T11:21:48.899Z,956.67
2023-03-18T11:22:48.867Z,956.62
2023-03-18T11:23:48.879Z,956.66
2023-03-18T11:24:48.826Z,956.63
2023-03-18T11:25:48.813Z,956.64
2023-03-18T11:26:48.764Z,956.61
2023-03-18T11:27:48.752Z,956.63
2023-03-18T11:28:48.720Z,956.59
2023-03-18T11:29:48.687Z,956.58
2023-03-18T11:30:48.673Z,956.57
2023-03-18T11:31:48.637Z,956.60
2023-03-18T11:32:48.630Z,956.58
2023-03-18T11:33:48.603Z,956.57
2023-03-18T11:34:48.560Z,956.59
2023-03-18T11:35:48.568Z,956.57
2023-03-18T11:36:48.507Z,956.58
2023-03-18T11:37:48.484Z,956.55
2023-03-18T11:38:48.457Z,956.53
2023-03-18T11:39:48.431Z,956.58
2023-03-18T11:40:48.409Z,956.57
2023-03-18T11:41:48.379Z,956.56
2023-03-18T11:42:48.355Z,956.56
2023-03-18T11:43:48.326Z,956.52
2023-03-18T11:44:48.310Z,956.53
2023-03-18T11:45:48.277Z,956.51
2023-03-18T11:46:48.305Z,956.43
2023-03-18T11:47:48.226Z,956.40
2023-03-18T11:48:48.201Z,956.40
2023-03-18T11:49:48.192Z,956.37
2023-03-18T11:50:48.152Z,956.42
2023-03-18T11:51:48.123Z,956.38
2023-03-18T11:52:48.099Z,956.43
2023-03-18T11:53:48.085Z,956.41
2023-03-18T11:54:48.050Z,956.41
2023-03-18T11:55:48.029Z,956.35
2023-03-18T11:56:48.015Z,956.33
2023-03-18T11:57:47.988Z,956.37
2023-03-18T11:58:47.953Z,956.37
2023-03-18T11:59:47.928Z,956.31
2023-03-18T12:00:47.902Z,956.30
2023-03-18T12:01:47.956Z,956.31
2023-03-18T12:02:47.854Z,956.34
2023-03-18T12:03:47.826Z,956.31
2023-03-18T12:04:47.808Z,956.32
2023-03-18T12:05:47.795Z,956.31
2023-03-18T12:06:47.757Z,956.30
2023-03-18T12:07:47.725Z,956.29
2023-03-18T12:08:47.704Z,956.28
2023-03-18T12:09:47.677Z,956.26
2023-03-18T12:10:47.656Z,956.27
2023-03-18T12:11:47.629Z,956.24
2023-03-18T12:12:47.607Z,956.24
2023-03-18T12:13:47.580Z,956.22
2023-03-18T12:14:47.555Z,956.20
2023-03-18T12:15:47.531Z,956.15
2023-03-18T12:16:47.548Z,956.14
2023-03-18T12:17:47.487Z,956.15
2023-03-18T12:18:47.457Z,956.15
2023-03-18T12:19:47.431Z,956.12
2023-03-18T12:20:47.408Z,956.20
2023-03-18T12:21:47.402Z,956.17
2023-03-18T12:22:47.359Z,956.12
2023-03-18T12:23:49.729Z,956.12
2023-03-18T12:24:47.311Z,956.18
2023-03-18T12:25:47.286Z,956.11
2023-03-18T12:26:47.262Z,956.12
2023-03-18T12:27:47.234Z,956.15